Flight Track Log - Related Links

Times and Time Zones

All times are in EDT time to prevent confusion due to time zone crossing. See the N960DL flight status page for this flight to view local times or setup timezone preferences in your user account.

Time Position Orientation Groundspeed Altitude Reporting Facility
EDT Latitude Longitude Course Direction KTS MPH feet Rate Location/Type
Mon 11:32:12 AM 44.9000 -93.2833 157° South 189 217 2,200  Level Minneapolis TRACON
Mon 11:32:51 AM 44.8875 -93.3292 249° West 229 264 3,200 2,139 Climbing Minneapolis Center
Mon 11:33:53 AM 44.8697 -93.4269 256° West 271 312 5,800 2,250 Climbing Minneapolis Center
Mon 11:34:00 AM 44.5754 -92.9432 149° Southeast  Level Estimated
Mon 11:35:00 AM 44.4731 -92.8509 152° Southeast  Level Estimated
Mon 11:35:07 AM 44.7986 -93.4442 190° South 273 314 8,300  Level Minneapolis Center
Mon 11:36:00 AM 44.3707 -92.7590 150° Southeast  Level Estimated
Mon 11:37:00 AM 44.2682 -92.6674 157° South  Level Estimated
Mon 11:37:11 AM 44.6050 -93.4017 171° South 350 403 12,500  Level Minneapolis Center
Mon 11:38:13 AM 44.5231 -93.3067 140° Southeast 389 448 14,100 1,854 Climbing Minneapolis Center
Mon 11:39:14 AM 44.4300 -93.2189 146° Southeast 407 468 16,300 2,000 Climbing Minneapolis Center
Mon 11:40:16 AM 44.3142 -93.1083 146° Southeast 421 484 18,200 1,887 Climbing Minneapolis Center
Mon 11:41:18 AM 44.2150 -93.0136 146° Southeast 430 495 20,200 1,694 Climbing Minneapolis Center
Mon 11:42:20 AM 44.1044 -92.9386 154° Southeast 442 509 21,700 1,548 Climbing Minneapolis Center
Mon 11:43:22 AM 43.9844 -92.8908 164° South 450 518 23,400 1,790 Climbing Minneapolis Center
Mon 11:44:24 AM 43.8636 -92.8467 165° South 450 518 25,400 1,742 Climbing Minneapolis Center
Mon 11:45:26 AM 43.7467 -92.8081 167° South 447 514 27,000 1,500 Climbing Minneapolis Center
Mon 11:47:20 AM 43.5150 -92.7275 166° South 428 493 29,800 1,427 Climbing Chicago Center
Mon 11:48:31 AM 43.3806 -92.6797 166° South 427 491 31,400 1,128 Climbing Minneapolis Center
Mon 11:49:33 AM 43.2700 -92.6419 166° South 417 480 32,300 726 Climbing Minneapolis Center
Mon 11:50:35 AM 43.1597 -92.6056 166° South 414 476 32,900 227 Climbing Minneapolis Center
Mon 11:52:00 AM 43.0223 -92.5016 151° Southeast  Level FlightAware Approximate
Mon 11:52:38 AM 42.9350 -92.4567 151° Southeast 418 481 33,000  Level Minneapolis Center
Mon 11:53:40 AM 42.8350 -92.3794 150° Southeast 419 482 33,000  Level Minneapolis Center
Mon 11:54:42 AM 42.7358 -92.3008 150° Southeast 418 481 33,000  Level Minneapolis Center
Mon 11:55:44 AM 42.6358 -92.2236 150° Southeast 420 483 33,000  Level Minneapolis Center
Mon 11:56:46 AM 42.5164 -92.1322 151° Southeast 418 481 33,000  Level Minneapolis Center
Mon 11:57:48 AM 42.4169 -92.0539 150° Southeast 420 483 33,000  Level Minneapolis Center
Mon 11:59:35 AM 42.2342 -91.9131 150° Southeast 426 490 33,000  Level Kansas City Center
Mon 11:59:51 AM 42.2147 -91.8981 150° Southeast 423 487 33,000  Level Minneapolis Center
Mon 12:00:44 PM 42.1139 -91.8186 150° Southeast 425 489 33,000  Level Chicago Center
Mon 12:01:45 PM 42.0122 -91.7406 150° Southeast 426 490 33,000  Level Chicago Center
Mon 12:02:47 PM 41.9094 -91.6625 151° Southeast 427 491 33,000  Level Chicago Center
Mon 12:04:44 PM 41.7072 -91.5089 150° Southeast 430 495 33,000  Level Kansas City Center
Mon 12:05:46 PM 41.6042 -91.4306 150° Southeast 428 493 33,000  Level Kansas City Center
Mon 12:06:54 PM 41.4772 -91.3331 150° Southeast 433 498 33,000  Level Chicago Center
Mon 12:07:56 PM 41.3747 -91.2567 151° Southeast 430 495 33,000  Level Chicago Center
Mon 12:08:58 PM 41.2689 -91.1792 151° Southeast 434 499 33,000  Level Chicago Center
Mon 12:10:00 PM 41.1444 -91.0819 150° Southeast 434 499 33,000  Level Chicago Center
Mon 12:11:02 PM 41.0414 -91.0025 150° Southeast 431 496 33,000  Level Chicago Center
Mon 12:12:03 PM 40.9364 -90.9250 151° Southeast 432 497 33,000  Level Chicago Center
Mon 12:14:07 PM 40.7256 -90.7681 151° Southeast 438 504 33,000  Level Chicago Center
Mon 12:16:11 PM 40.4897 -90.5944 151° Southeast 443 510 33,000  Level Chicago Center
Mon 12:17:13 PM 40.3811 -90.5172 152° Southeast 445 512 33,000  Level Chicago Center
Mon 12:18:15 PM 40.2733 -90.4394 151° Southeast 445 512 33,000  Level Chicago Center
Mon 12:19:17 PM 40.1667 -90.3617 151° Southeast 442 509 33,000  Level Chicago Center
Mon 12:20:19 PM 40.0572 -90.2847 152° Southeast 447 514 33,000  Level Chicago Center
Mon 12:21:21 PM 39.9494 -90.2064 151° Southeast 447 514 33,000  Level Chicago Center
Mon 12:22:16 PM 39.8397 -90.1308 152° Southeast 448 516 33,000  Level Kansas City Center
Mon 12:23:18 PM 39.7294 -90.0553 152° Southeast 448 516 33,000  Level Kansas City Center
Mon 12:25:21 PM 39.4975 -89.8892 151° Southeast 443 510 33,000  Level Kansas City Center
Mon 12:26:23 PM 39.3889 -89.8122 151° Southeast 444 511 33,000  Level Kansas City Center
Mon 12:27:25 PM 39.2808 -89.7369 152° Southeast 442 509 33,000  Level Kansas City Center
Mon 12:29:29 PM 39.0414 -89.5722 152° Southeast 444 511 33,000  Level Kansas City Center
Mon 12:30:31 PM 38.9314 -89.4981 152° Southeast 446 513 33,000  Level Kansas City Center
Mon 12:32:00 PM 38.7780 -89.3887 151° Southeast  Level FlightAware Approximate
Mon 12:32:34 PM 38.7050 -89.3428 151° Southeast 442 509 33,000  Level Kansas City Center
Mon 12:33:36 PM 38.5950 -89.2667 152° Southeast 447 514 33,000  Level Kansas City Center
Mon 12:34:38 PM 38.4842 -89.1911 152° Southeast 449 517 33,000  Level Kansas City Center
Mon 12:36:00 PM 38.3407 -89.0960 153° Southeast  Level FlightAware Approximate
Mon 12:38:45 PM 38.0253 -88.8822 153° Southeast 451 519 33,000  Level Kansas City Center
Mon 12:39:47 PM 37.9158 -88.8092 152° Southeast 447 514 33,000  Level Kansas City Center
Mon 12:40:49 PM 37.8039 -88.7361 153° Southeast 450 518 33,000  Level Kansas City Center
Mon 12:41:51 PM 37.6883 -88.6586 152° Southeast 443 510 33,000  Level Kansas City Center
Mon 12:42:53 PM 37.5758 -88.5844 152° Southeast 449 517 33,000  Level Kansas City Center
Mon 12:43:00 PM 37.6124 -88.5972 153° Southeast  Level FlightAware Approximate
Mon 12:43:54 PM 37.4558 -88.5042 152° Southeast 455 524 33,000  Level Kansas City Center
Mon 12:44:00 PM 37.5074 -88.5284 153° Southeast  Level FlightAware Approximate
Mon 12:44:56 PM 37.3397 -88.4317 154° Southeast 456 525 33,000  Level Memphis Center
Mon 12:45:56 PM 37.2261 -88.3536 151° Southeast 456 525 33,000  Level Memphis Center
Mon 12:46:56 PM 37.1144 -88.2811 153° Southeast 456 525 33,000  Level Memphis Center
Mon 12:47:56 PM 36.9986 -88.2061 153° Southeast 456 525 33,000  Level Memphis Center
Mon 12:48:56 PM 36.8847 -88.1314 152° Southeast 456 525 33,000  Level Memphis Center
Mon 12:49:56 PM 36.7625 -88.0597 155° Southeast 475 547 33,000  Level Memphis Center
Mon 12:50:56 PM 36.6308 -88.0297 170° South 475 547 33,000  Level Memphis Center
Mon 12:51:56 PM 36.5031 -88.0025 170° South 475 547 33,000  Level Memphis Center
Mon 12:52:56 PM 36.3775 -87.9728 169° South 465 535 33,000  Level Memphis Center
Mon 12:54:00 PM 36.2559 -87.9297 165° South  Level FlightAware Approximate
Mon 12:56:56 PM 35.8972 -87.7381 152° Southeast 479 551 33,000  Level Memphis Center
Mon 12:57:56 PM 35.7831 -87.6600 151° Southeast 479 551 33,000  Level Memphis Center
Mon 12:58:56 PM 35.6644 -87.5769 150° Southeast 484 557 33,000  Level Memphis Center
Mon 12:59:56 PM 35.5564 -87.5039 151° Southeast 484 557 33,000  Level Memphis Center
Mon 01:01:00 PM 35.5196 -87.4607 152° Southeast  Level FlightAware Approximate
Mon 01:01:56 PM 35.3106 -87.3419 152° Southeast 479 551 33,000  Level Memphis Center
Mon 01:02:00 PM 35.3987 -87.4158 152° Southeast  Level FlightAware Approximate
Mon 01:05:10 PM 34.9275 -87.0814 151° Southeast 483 556 33,000  Level Atlanta Center
Mon 01:07:10 PM 34.6953 -86.9289 152° Southeast 483 556 34,400 533 Climbing Atlanta Center
Mon 01:08:10 PM 34.6028 -86.8703 152° Southeast 473 544 34,600 200 Climbing Atlanta Center
Mon 01:09:10 PM 34.4775 -86.7878 151° Southeast 468 539 34,800 200 Climbing Atlanta Center
Mon 01:10:10 PM 34.3600 -86.7136 152° Southeast 468 539 35,000 100 Climbing Atlanta Center
Mon 01:11:10 PM 34.2469 -86.6397 152° Southeast 468 539 35,000  Level Atlanta Center
Mon 01:12:10 PM 34.1314 -86.5658 152° Southeast 468 539 35,000  Level Atlanta Center
Mon 01:13:10 PM 34.0142 -86.4897 152° Southeast 468 539 35,000  Level Atlanta Center
Mon 01:14:09 PM 33.8967 -86.4164 153° Southeast 468 539 35,000  Level Atlanta Center
Mon 01:16:00 PM 33.7011 -86.2934 152° Southeast  Level FlightAware Approximate
Mon 01:17:10 PM 33.5333 -86.1844 152° Southeast 473 544 35,000  Level Atlanta Center
Mon 01:18:10 PM 33.4158 -86.1094 152° Southeast 472 543 35,000  Level Atlanta Center
Mon 01:20:00 PM 33.2204 -85.9921 153° Southeast  Level FlightAware Approximate
Mon 01:21:10 PM 33.0686 -85.8906 153° Southeast 467 537 35,000  Level Atlanta Center
Mon 01:22:10 PM 32.9528 -85.8161 152° Southeast 467 537 35,000  Level Atlanta Center
Mon 01:23:10 PM 32.8369 -85.7447 153° Southeast 472 543 35,000  Level Atlanta Center
Mon 01:25:10 PM 32.5989 -85.5969 152° Southeast 472 543 35,000  Level Atlanta Center
Mon 01:27:00 PM 32.4038 -85.4798 153° Southeast  Level FlightAware Approximate
Mon 01:30:03 PM 32.0172 -85.2447 153° Southeast 489 563 35,000  Level Jacksonville Center
Mon 01:32:03 PM 31.7800 -85.0994 152° Southeast 489 563 35,000  Level Jacksonville Center
Mon 01:34:03 PM 31.5525 -84.9625 153° Southeast 493 567 35,000  Level Jacksonville Center
Mon 01:35:03 PM 31.4367 -84.8892 152° Southeast 480 552 35,000  Level Jacksonville Center
Mon 01:37:03 PM 31.2031 -84.7408 151° Southeast 475 547 35,000  Level Jacksonville Center
Mon 01:38:03 PM 31.0872 -84.6658 151° Southeast 469 540 35,000  Level Jacksonville Center
Mon 01:39:03 PM 30.9692 -84.5908 151° Southeast 469 540 35,000  Level Jacksonville Center
Mon 01:40:03 PM 30.8533 -84.5186 152° Southeast 469 540 35,000  Level Jacksonville Center
Mon 01:42:00 PM 30.6384 -84.4108 157° South  Level FlightAware Approximate
Mon 01:48:03 PM 29.9200 -83.9278 151° Southeast 469 540 35,000  Level Jacksonville Center
Mon 01:49:00 PM 29.9033 -83.9398 150° Southeast  Level FlightAware Approximate
Mon 01:50:00 PM 29.7988 -83.8718 151° Southeast  Level FlightAware Approximate
Mon 01:50:00 PM 29.7133 -83.8013 152° Southeast  Level FlightAware Approximate
Mon 01:51:00 PM 29.6940 -83.8045 151° Southeast  Level FlightAware Approximate
Mon 01:51:03 PM 29.5667 -83.7092 152° Southeast 469 540 35,000  Level Jacksonville Center
Mon 01:52:00 PM 29.5891 -83.7373 151° Southeast  Level FlightAware Approximate
Mon 01:53:00 PM 29.4842 -83.6703 151° Southeast  Level FlightAware Approximate
Mon 01:53:00 PM 29.3591 -83.5849 152° Southeast  Level FlightAware Approximate
Mon 01:54:03 PM 29.2131 -83.4922 152° Southeast 469 540 35,000  Level Jacksonville Center
Mon 01:56:03 PM 28.9756 -83.3483 152° Southeast 474 545 35,000  Level Jacksonville Center
Mon 01:57:03 PM 28.8589 -83.2767 152° Southeast 469 540 35,000  Level Jacksonville Center
Mon 01:58:03 PM 28.7422 -83.2075 153° Southeast 469 540 35,000  Level Jacksonville Center
Mon 01:59:03 PM 28.6214 -83.1361 153° Southeast 474 545 35,000  Level Jacksonville Center
Mon 02:01:34 PM 28.3253 -82.9617 153° Southeast 480 552 35,000  Level Miami Center
Mon 02:02:34 PM 28.2072 -82.8917 152° Southeast 480 552 35,000  Level Miami Center
Mon 02:03:34 PM 28.0892 -82.8194 152° Southeast 480 552 35,000  Level Miami Center
Mon 02:05:34 PM 27.8503 -82.6967 156° South 474 545 35,000  Level Miami Center
Mon 02:06:34 PM 27.7167 -82.6453 161° South 460 529 35,000  Level Miami Center
Mon 02:07:34 PM 27.5953 -82.6039 163° South 449 517 35,000  Level Miami Center
Mon 02:08:34 PM 27.4886 -82.5611 160° South 455 524 35,000  Level Miami Center
Mon 02:09:34 PM 27.3528 -82.5122 162° South 455 524 35,000  Level Miami Center
Mon 02:10:34 PM 27.2436 -82.4719 162° South 455 524 35,000  Level Miami Center
Mon 02:12:00 PM 27.0804 -82.4124 162° South  Level FlightAware Approximate
Mon 02:12:34 PM 27.0050 -82.3858 162° South 461 531 35,000  Level Miami Center
Mon 02:13:34 PM 26.8689 -82.3400 163° South 467 537 35,000  Level Miami Center
Mon 02:15:00 PM 26.7078 -82.2731 160° South  Level FlightAware Approximate
Mon 02:15:34 PM 26.6258 -82.2519 160° South 467 537 35,000  Level Miami Center
Mon 02:16:34 PM 26.5186 -82.1633 144° Southeast 460 529 34,300 -1,100 Descending Miami Center
Mon 02:17:34 PM 26.4181 -82.0592 137° Southeast 476 548 32,800 -1,740 Descending Miami Center
Mon 02:19:00 PM 26.2944 -81.9277 138° Southeast  Level FlightAware Approximate
Mon 02:21:34 PM 26.0903 -81.5686 114° Southeast 494 568 25,600  Level Miami Center
Mon 02:22:34 PM 26.0442 -81.4350 111° Southeast 473 544 23,700 -2,000 Descending Miami Center
Mon 02:23:34 PM 26.0025 -81.3042 109° East 459 528 21,600 -2,174 Descending Miami Center
Mon 02:24:52 PM 25.9425 -81.1378 112° Southeast 431 496 18,700 -2,158 Descending Miami Center
Mon 02:25:53 PM 25.9044 -81.0164 109° East 413 475 16,600 -1,706 Descending Miami Center
Mon 02:26:00 PM 25.9335 -81.1059 108° East  Level FlightAware Approximate
Mon 02:26:34 PM 25.8836 -80.9394 107° East 420 483 15,800  Level Miami Center
Mon 02:26:55 PM 25.8636 -80.8997 119° Southeast 387 445 15,600 -900 Descending Miami Center
Mon 02:27:00 PM 25.8957 -80.9808 114° Southeast  Level FlightAware Approximate
Mon 02:27:34 PM 25.8489 -80.8275 103° East 399 459 14,900  Level Miami Center
Mon 02:29:00 PM 25.8500 -80.6368 90° East  Level FlightAware Approximate
Mon 02:29:34 PM 25.8611 -80.6064 90° East 371 427 11,400  Level Miami Center
Mon 02:30:05 PM 25.8628 -80.5394 88° East 369 425 10,200 -1,300 Descending Miami Center
Mon 02:30:34 PM 25.8700 -80.4958 80° East 365 420 10,100 -135 Descending Miami Center
Mon 02:31:34 PM 25.8769 -80.3875 86° East 360 414 10,000 -400 Descending Miami Center
Mon 02:32:34 PM 25.8836 -80.2814 86° East 355 409 9,300 -1,350 Descending Miami Center
Mon 02:33:34 PM 25.8858 -80.1892 88° East 322 371 7,300 -2,066 Descending Miami Center
Mon 02:35:05 PM 25.8592 -80.0661 104° East 250 288 4,100 -1,309 Descending Miami Center
Mon 02:38:09 PM 25.8056 -80.2194 249° West 156 180 1,300 -913 Descending Miami Center

Login

Don't have an account? Register now (free) for customized features, flight alerts, and more!